sensor_id;sensor_type;location;lat;lon;timestamp;pressure;altitude;pressure_sealevel;temperature;humidity
26865;BME280;40618;51.166;10.322;2023-04-10T00:02:18;98186.34;;;5.82;65.16
26865;BME280;40618;51.166;10.322;2023-04-10T00:04:44;98187.22;;;5.81;65.05
26865;BME280;40618;51.166;10.322;2023-04-10T00:07:10;98193.22;;;5.89;64.98
26865;BME280;40618;51.166;10.322;2023-04-10T00:09:35;98190.66;;;5.91;65.08
26865;BME280;40618;51.166;10.322;2023-04-10T00:12:01;98182.94;;;5.92;65.08
26865;BME280;40618;51.166;10.322;2023-04-10T00:14:27;98182.09;;;5.92;65.31
26865;BME280;40618;51.166;10.322;2023-04-10T00:16:52;98176.06;;;5.88;64.93
26865;BME280;40618;51.166;10.322;2023-04-10T00:19:18;98174.34;;;5.87;64.85
26865;BME280;40618;51.166;10.322;2023-04-10T00:21:43;98183.78;;;5.87;65.25
26865;BME280;40618;51.166;10.322;2023-04-10T00:24:09;98178.66;;;5.87;65.37
26865;BME280;40618;51.166;10.322;2023-04-10T00:26:35;98181.22;;;5.90;65.38
26865;BME280;40618;51.166;10.322;2023-04-10T00:29:01;98180.38;;;5.88;65.29
26865;BME280;40618;51.166;10.322;2023-04-10T00:31:29;98172.63;;;5.86;65.40
26865;BME280;40618;51.166;10.322;2023-04-10T00:33:54;98177.78;;;5.79;65.43
26865;BME280;40618;51.166;10.322;2023-04-10T00:36:20;98165.78;;;5.78;65.54
26865;BME280;40618;51.166;10.322;2023-04-10T00:38:46;98162.38;;;5.75;65.32
26865;BME280;40618;51.166;10.322;2023-04-10T00:41:13;98152.94;;;5.78;65.58
26865;BME280;40618;51.166;10.322;2023-04-10T00:43:40;98146.09;;;5.75;65.55
26865;BME280;40618;51.166;10.322;2023-04-10T00:46:05;98146.09;;;5.75;65.88
26865;BME280;40618;51.166;10.322;2023-04-10T00:48:32;98148.66;;;5.76;65.91
26865;BME280;40618;51.166;10.322;2023-04-10T00:50:59;98146.94;;;5.80;65.81
26865;BME280;40618;51.166;10.322;2023-04-10T00:53:25;98148.69;;;5.80;65.58
26865;BME280;40618;51.166;10.322;2023-04-10T00:55:53;98149.50;;;5.74;65.67
26865;BME280;40618;51.166;10.322;2023-04-10T00:58:20;98152.06;;;5.62;65.55
26865;BME280;40618;51.166;10.322;2023-04-10T01:00:46;98154.66;;;5.55;65.91
26865;BME280;40618;51.166;10.322;2023-04-10T01:03:14;98166.63;;;5.44;65.70
26865;BME280;40618;51.166;10.322;2023-04-10T01:06:04;98162.34;;;5.46;66.11
26865;BME280;40618;51.166;10.322;2023-04-10T01:09:19;98164.91;;;5.51;66.09
26865;BME280;40618;51.166;10.322;2023-04-10T01:12:14;98158.91;;;5.52;66.02
26865;BME280;40618;51.166;10.322;2023-04-10T01:17:23;98168.31;;;5.43;66.24
26865;BME280;40618;51.166;10.322;2023-04-10T01:20:04;98172.63;;;5.40;65.80
26865;BME280;40618;51.166;10.322;2023-04-10T01:25:24;98175.16;;;5.38;66.65
26865;BME280;40618;51.166;10.322;2023-04-10T01:31:21;98179.44;;;5.42;66.15
26865;BME280;40618;51.166;10.322;2023-04-10T01:34:08;98185.44;;;5.45;66.12
26865;BME280;40618;51.166;10.322;2023-04-10T01:36:47;98180.31;;;5.40;66.15
26865;BME280;40618;51.166;10.322;2023-04-10T01:39:19;98173.44;;;5.40;66.39
26865;BME280;40618;51.166;10.322;2023-04-10T01:41:50;98174.31;;;5.41;66.13
26865;BME280;40618;51.166;10.322;2023-04-10T01:44:20;98176.03;;;5.45;66.49
26865;BME280;40618;51.166;10.322;2023-04-10T01:46:53;98169.19;;;5.44;66.18
26865;BME280;40618;51.166;10.322;2023-04-10T01:49:24;98170.00;;;5.38;66.03
26865;BME280;40618;51.166;10.322;2023-04-10T01:51:52;98172.56;;;5.38;66.41
26865;BME280;40618;51.166;10.322;2023-04-10T01:54:22;98176.03;;;5.39;66.04
26865;BME280;40618;51.166;10.322;2023-04-10T01:56:51;98159.75;;;5.38;66.37
26865;BME280;40618;51.166;10.322;2023-04-10T01:59:17;98158.03;;;5.31;66.20
26865;BME280;40618;51.166;10.322;2023-04-10T02:01:43;98164.88;;;5.28;66.24
26865;BME280;40618;51.166;10.322;2023-04-10T02:04:08;98163.13;;;5.22;66.19
26865;BME280;40618;51.166;10.322;2023-04-10T02:09:36;98159.72;;;5.17;66.52
26865;BME280;40618;51.166;10.322;2023-04-10T02:12:14;98160.56;;;5.13;66.49
26865;BME280;40618;51.166;10.322;2023-04-10T02:14:44;98161.38;;;5.05;66.41
26865;BME280;40618;51.166;10.322;2023-04-10T02:17:14;98159.69;;;5.09;66.87
26865;BME280;40618;51.166;10.322;2023-04-10T02:19:44;98154.53;;;5.14;66.72
26865;BME280;40618;51.166;10.322;2023-04-10T02:22:12;98158.00;;;5.19;66.42
26865;BME280;40618;51.166;10.322;2023-04-10T02:24:40;98158.84;;;5.19;66.50
26865;BME280;40618;51.166;10.322;2023-04-10T02:27:06;98155.41;;;5.19;66.53
26865;BME280;40618;51.166;10.322;2023-04-10T02:29:31;98151.16;;;5.21;66.42
26865;BME280;40618;51.166;10.322;2023-04-10T02:31:57;98148.59;;;5.22;66.33
26865;BME280;40618;51.166;10.322;2023-04-10T02:34:23;98154.56;;;5.20;66.35
26865;BME280;40618;51.166;10.322;2023-04-10T02:36:49;98153.69;;;5.13;66.64
26865;BME280;40618;51.166;10.322;2023-04-10T02:39:14;98154.53;;;5.04;66.55
26865;BME280;40618;51.166;10.322;2023-04-10T02:41:40;98163.94;;;4.98;66.44
26865;BME280;40618;51.166;10.322;2023-04-10T02:44:05;98157.06;;;4.97;66.53
26865;BME280;40618;51.166;10.322;2023-04-10T02:46:31;98154.50;;;4.95;66.78
26865;BME280;40618;51.166;10.322;2023-04-10T02:48:57;98153.66;;;4.96;66.66
26865;BME280;40618;51.166;10.322;2023-04-10T02:51:23;98157.06;;;4.98;66.80
26865;BME280;40618;51.166;10.322;2023-04-10T02:53:49;98147.66;;;4.99;66.41
26865;BME280;40618;51.166;10.322;2023-04-10T02:56:14;98149.38;;;4.98;66.43
26865;BME280;40618;51.166;10.322;2023-04-10T02:58:40;98153.63;;;4.93;66.61
26865;BME280;40618;51.166;10.322;2023-04-10T03:01:09;98143.34;;;4.91;66.70
26865;BME280;40618;51.166;10.322;2023-04-10T03:03:35;98149.34;;;4.92;66.76
26865;BME280;40618;51.166;10.322;2023-04-10T03:06:00;98143.34;;;4.93;66.63
26865;BME280;40618;51.166;10.322;2023-04-10T03:08:26;98149.38;;;4.94;66.69
26865;BME280;40618;51.166;10.322;2023-04-10T03:10:52;98144.19;;;4.90;66.77
26865;BME280;40618;51.166;10.322;2023-04-10T03:13:17;98139.06;;;4.87;66.74
26865;BME280;40618;51.166;10.322;2023-04-10T03:15:43;98133.06;;;4.82;66.85
26865;BME280;40618;51.166;10.322;2023-04-10T03:18:08;98132.22;;;4.82;66.94
26865;BME280;40618;51.166;10.322;2023-04-10T03:20:35;98134.78;;;4.80;66.69
26865;BME280;40618;51.166;10.322;2023-04-10T03:23:03;98139.03;;;4.80;66.98
26865;BME280;40618;51.166;10.322;2023-04-10T03:25:29;98142.47;;;4.80;66.94
26865;BME280;40618;51.166;10.322;2023-04-10T03:27:56;98142.47;;;4.80;66.96
26865;BME280;40618;51.166;10.322;2023-04-10T03:30:22;98141.59;;;4.78;66.98
26865;BME280;40618;51.166;10.322;2023-04-10T03:32:47;98137.28;;;4.68;66.87
26865;BME280;40618;51.166;10.322;2023-04-10T03:35:13;98128.75;;;4.70;66.89
26865;BME280;40618;51.166;10.322;2023-04-10T03:37:38;98133.00;;;4.71;66.65
26865;BME280;40618;51.166;10.322;2023-04-10T03:40:07;98127.03;;;4.71;67.30
26865;BME280;40618;51.166;10.322;2023-04-10T03:42:34;98129.59;;;4.72;66.98
26865;BME280;40618;51.166;10.322;2023-04-10T03:45:00;98127.03;;;4.72;66.90
26865;BME280;40618;51.166;10.322;2023-04-10T03:47:29;98121.91;;;4.66;67.05
26865;BME280;40618;51.166;10.322;2023-04-10T03:49:56;98127.88;;;4.62;67.06
26865;BME280;40618;51.166;10.322;2023-04-10T03:52:25;98132.97;;;4.61;66.76
26865;BME280;40618;51.166;10.322;2023-04-10T03:54:53;98126.97;;;4.60;67.03
26865;BME280;40618;51.166;10.322;2023-04-10T03:57:19;98140.69;;;4.62;67.00
26865;BME280;40618;51.166;10.322;2023-04-10T03:59:48;98135.50;;;4.59;67.17
26865;BME280;40618;51.166;10.322;2023-04-10T04:02:13;98142.38;;;4.58;67.02
26865;BME280;40618;51.166;10.322;2023-04-10T04:04:39;98138.91;;;4.56;67.17
26865;BME280;40618;51.166;10.322;2023-04-10T04:07:05;98133.78;;;4.46;67.11
26865;BME280;40618;51.166;10.322;2023-04-10T04:09:30;98141.41;;;4.39;67.38
26865;BME280;40618;51.166;10.322;2023-04-10T04:11:56;98133.72;;;4.36;67.38
26865;BME280;40618;51.166;10.322;2023-04-10T04:14:22;98131.09;;;4.32;66.87
26865;BME280;40618;51.166;10.322;2023-04-10T04:16:48;98132.78;;;4.25;67.16
26865;BME280;40618;51.166;10.322;2023-04-10T04:19:14;98135.34;;;4.25;67.67
26865;BME280;40618;51.166;10.322;2023-04-10T04:21:40;98133.66;;;4.26;67.59
26865;BME280;40618;51.166;10.322;2023-04-10T04:24:05;98127.63;;;4.25;67.64
26865;BME280;40618;51.166;10.322;2023-04-10T04:26:31;98129.38;;;4.28;67.54
26865;BME280;40618;51.166;10.322;2023-04-10T04:28:57;98131.09;;;4.27;67.22
26865;BME280;40618;51.166;10.322;2023-04-10T04:31:23;98131.91;;;4.23;67.24
26865;BME280;40618;51.166;10.322;2023-04-10T04:33:49;98127.63;;;4.19;67.74
26865;BME280;40618;51.166;10.322;2023-04-10T04:36:15;98130.19;;;4.23;67.54
26865;BME280;40618;51.166;10.322;2023-04-10T04:38:41;98132.81;;;4.27;67.96
26865;BME280;40618;51.166;10.322;2023-04-10T04:41:07;98131.94;;;4.26;67.36
26865;BME280;40618;51.166;10.322;2023-04-10T04:43:32;98135.34;;;4.25;67.60
26865;BME280;40618;51.166;10.322;2023-04-10T04:45:58;98131.91;;;4.23;67.69
26865;BME280;40618;51.166;10.322;2023-04-10T04:48:24;98139.66;;;4.29;67.37
26865;BME280;40618;51.166;10.322;2023-04-10T04:50:49;98126.84;;;4.29;67.42
26865;BME280;40618;51.166;10.322;2023-04-10T04:53:15;98126.81;;;4.28;68.18
26865;BME280;40618;51.166;10.322;2023-04-10T04:55:41;98126.81;;;4.28;67.60
26865;BME280;40618;51.166;10.322;2023-04-10T04:58:06;98131.09;;;4.30;67.89
26865;BME280;40618;51.166;10.322;2023-04-10T05:00:32;98123.38;;;4.26;68.06
26865;BME280;40618;51.166;10.322;2023-04-10T05:02:57;98134.53;;;4.29;67.91
26865;BME280;40618;51.166;10.322;2023-04-10T05:05:23;98133.66;;;4.30;67.93
26865;BME280;40618;51.166;10.322;2023-04-10T05:07:49;98135.34;;;4.25;67.64
26865;BME280;40618;51.166;10.322;2023-04-10T05:10:14;98130.25;;;4.28;67.77
26865;BME280;40618;51.166;10.322;2023-04-10T05:12:40;98137.09;;;4.31;67.65
26865;BME280;40618;51.166;10.322;2023-04-10T05:15:07;98139.66;;;4.32;67.63
26865;BME280;40618;51.166;10.322;2023-04-10T05:17:33;98134.53;;;4.32;67.71
26865;BME280;40618;51.166;10.322;2023-04-10T05:19:59;98136.25;;;4.33;67.90
26865;BME280;40618;51.166;10.322;2023-04-10T05:22:25;98135.44;;;4.37;68.12
26865;BME280;40618;51.166;10.322;2023-04-10T05:24:52;98139.72;;;4.42;68.43
26865;BME280;40618;51.166;10.322;2023-04-10T05:27:19;98139.69;;;4.38;68.23
26865;BME280;40618;51.166;10.322;2023-04-10T05:29:44;98134.56;;;4.37;68.54
26865;BME280;40618;51.166;10.322;2023-04-10T05:32:10;98138.84;;;4.39;67.92
26865;BME280;40618;51.166;10.322;2023-04-10T05:34:36;98142.28;;;4.42;68.17
26865;BME280;40618;51.166;10.322;2023-04-10T05:37:01;98135.44;;;4.42;68.03
26865;BME280;40618;51.166;10.322;2023-04-10T05:39:27;98137.16;;;4.42;68.24
26865;BME280;40618;51.166;10.322;2023-04-10T05:41:52;98143.16;;;4.47;68.72
26865;BME280;40618;51.166;10.322;2023-04-10T05:44:18;98144.03;;;4.49;68.53
26865;BME280;40618;51.166;10.322;2023-04-10T05:46:44;98151.72;;;4.47;68.53
26865;BME280;40618;51.166;10.322;2023-04-10T05:49:09;98148.28;;;4.48;68.32
26865;BME280;40618;51.166;10.322;2023-04-10T05:51:35;98145.75;;;4.50;68.32
26865;BME280;40618;51.166;10.322;2023-04-10T05:54:01;98147.44;;;4.45;68.75
26865;BME280;40618;51.166;10.322;2023-04-10T05:56:26;98150.81;;;4.40;68.74
26865;BME280;40618;51.166;10.322;2023-04-10T05:58:52;98155.97;;;4.44;68.61
26865;BME280;40618;51.166;10.322;2023-04-10T06:01:17;98155.13;;;4.48;68.68
26865;BME280;40618;51.166;10.322;2023-04-10T06:03:43;98146.59;;;4.50;69.31
26865;BME280;40618;51.166;10.322;2023-04-10T06:06:09;98150.88;;;4.50;69.38
26865;BME280;40618;51.166;10.322;2023-04-10T06:08:35;98143.22;;;4.56;69.00
26865;BME280;40618;51.166;10.322;2023-04-10T06:11:00;98140.69;;;4.62;69.04
26865;BME280;40618;51.166;10.322;2023-04-10T06:13:26;98140.69;;;4.67;68.96
26865;BME280;40618;51.166;10.322;2023-04-10T06:15:52;98140.69;;;4.67;69.28
26865;BME280;40618;51.166;10.322;2023-04-10T06:18:18;98139.00;;;4.70;69.42
26865;BME280;40618;51.166;10.322;2023-04-10T06:20:43;98130.44;;;4.70;69.19
26865;BME280;40618;51.166;10.322;2023-04-10T06:23:09;98125.31;;;4.71;69.44
26865;BME280;40618;51.166;10.322;2023-04-10T06:25:36;98124.47;;;4.74;69.49
26865;BME280;40618;51.166;10.322;2023-04-10T06:28:02;98131.31;;;4.77;69.73
26865;BME280;40618;51.166;10.322;2023-04-10T06:30:28;98135.63;;;4.81;69.20
26865;BME280;40618;51.166;10.322;2023-04-10T06:32:54;98125.38;;;4.87;69.27
26865;BME280;40618;51.166;10.322;2023-04-10T06:35:20;98122.81;;;4.90;69.33
26865;BME280;40618;51.166;10.322;2023-04-10T06:37:46;98134.81;;;4.93;69.88
26865;BME280;40618;51.166;10.322;2023-04-10T06:40:13;98122.81;;;4.93;69.53
26865;BME280;40618;51.166;10.322;2023-04-10T06:42:39;98122.88;;;4.98;69.53
26865;BME280;40618;51.166;10.322;2023-04-10T06:45:06;98125.44;;;5.02;69.99
26865;BME280;40618;51.166;10.322;2023-04-10T06:47:33;98119.44;;;5.06;69.87
26865;BME280;40618;51.166;10.322;2023-04-10T06:49:58;98120.31;;;5.08;69.66
26865;BME280;40618;51.166;10.322;2023-04-10T06:52:24;98121.16;;;5.12;69.73
26865;BME280;40618;51.166;10.322;2023-04-10T06:54:50;98122.03;;;5.14;69.87
26865;BME280;40618;51.166;10.322;2023-04-10T06:57:16;98118.63;;;5.20;69.76
26865;BME280;40618;51.166;10.322;2023-04-10T06:59:43;98116.06;;;5.24;70.38
26865;BME280;40618;51.166;10.322;2023-04-10T07:02:09;98111.78;;;5.31;69.99
26865;BME280;40618;51.166;10.322;2023-04-10T07:04:35;98116.06;;;5.38;69.99
26865;BME280;40618;51.166;10.322;2023-04-10T07:07:01;98110.09;;;5.50;70.28
26865;BME280;40618;51.166;10.322;2023-04-10T07:09:28;98111.84;;;5.61;70.11
26865;BME280;40618;51.166;10.322;2023-04-10T07:11:54;98104.13;;;5.73;70.46
26865;BME280;40618;51.166;10.322;2023-04-10T07:14:20;98105.84;;;5.89;70.39
26865;BME280;40618;51.166;10.322;2023-04-10T07:16:47;98105.84;;;6.02;70.21
26865;BME280;40618;51.166;10.322;2023-04-10T07:19:13;98103.25;;;6.16;70.22
26865;BME280;40618;51.166;10.322;2023-04-10T07:21:39;98098.06;;;6.31;70.29
26865;BME280;40618;51.166;10.322;2023-04-10T07:24:04;98102.31;;;6.46;70.49
26865;BME280;40618;51.166;10.322;2023-04-10T07:26:30;98103.13;;;6.62;70.17
26865;BME280;40618;51.166;10.322;2023-04-10T07:28:56;98102.19;;;6.77;70.11
26865;BME280;40618;51.166;10.322;2023-04-10T07:31:21;98091.00;;;6.90;70.12
26865;BME280;40618;51.166;10.322;2023-04-10T07:33:47;98089.19;;;7.03;69.47
26865;BME280;40618;51.166;10.322;2023-04-10T07:36:14;98086.56;;;7.14;69.65
26865;BME280;40618;51.166;10.322;2023-04-10T07:38:40;98085.59;;;7.29;69.18
26865;BME280;40618;51.166;10.322;2023-04-10T07:41:06;98087.22;;;7.39;69.66
26865;BME280;40618;51.166;10.322;2023-04-10T07:43:32;98085.41;;;7.54;69.67
26865;BME280;40618;51.166;10.322;2023-04-10T07:45:57;98091.25;;;7.74;69.06
26865;BME280;40618;51.166;10.322;2023-04-10T07:48:23;98089.28;;;8.04;68.98
26865;BME280;40618;51.166;10.322;2023-04-10T07:50:49;98090.88;;;8.16;68.73
26865;BME280;40618;51.166;10.322;2023-04-10T07:53:14;98091.66;;;8.26;68.50
26865;BME280;40618;51.166;10.322;2023-04-10T07:55:44;98085.53;;;8.35;68.14
26865;BME280;40618;51.166;10.322;2023-04-10T07:58:14;98080.25;;;8.44;68.27
26865;BME280;40618;51.166;10.322;2023-04-10T08:00:40;98075.81;;;8.57;67.80
26865;BME280;40618;51.166;10.322;2023-04-10T08:03:06;98068.53;;;8.88;67.81
26865;BME280;40618;51.166;10.322;2023-04-10T08:05:32;98065.06;;;8.94;67.49
26865;BME280;40618;51.166;10.322;2023-04-10T08:07:58;98067.66;;;8.91;66.81
26865;BME280;40618;51.166;10.322;2023-04-10T08:10:24;98064.22;;;8.92;66.66
26865;BME280;40618;51.166;10.322;2023-04-10T08:12:50;98059.72;;;9.05;67.00
26865;BME280;40618;51.166;10.322;2023-04-10T08:15:16;98059.63;;;9.11;66.01
26865;BME280;40618;51.166;10.322;2023-04-10T08:17:42;98045.91;;;9.07;66.13
26865;BME280;40618;51.166;10.322;2023-04-10T08:20:09;98051.97;;;9.06;65.48
26865;BME280;40618;51.166;10.322;2023-04-10T08:22:35;98052.66;;;9.18;65.76
26865;BME280;40618;51.166;10.322;2023-04-10T08:25:02;98057.63;;;9.30;65.89
26865;BME280;40618;51.166;10.322;2023-04-10T08:27:28;98057.44;;;9.42;66.15
26865;BME280;40618;51.166;10.322;2023-04-10T08:29:55;98053.72;;;9.59;66.18
26865;BME280;40618;51.166;10.322;2023-04-10T08:32:21;98047.59;;;9.64;65.79
26865;BME280;40618;51.166;10.322;2023-04-10T08:34:48;98043.84;;;9.82;65.18
26865;BME280;40618;51.166;10.322;2023-04-10T08:37:14;98043.59;;;9.98;65.75
26865;BME280;40618;51.166;10.322;2023-04-10T08:39:40;98041.56;;;10.12;65.10
26865;BME280;40618;51.166;10.322;2023-04-10T08:42:06;98039.78;;;10.16;65.31
26865;BME280;40618;51.166;10.322;2023-04-10T08:44:32;98028.31;;;10.29;64.76
26865;BME280;40618;51.166;10.322;2023-04-10T08:47:01;98031.91;;;10.24;64.84
26865;BME280;40618;51.166;10.322;2023-04-10T08:49:31;98033.69;;;10.20;64.78
26865;BME280;40618;51.166;10.322;2023-04-10T08:52:22;98029.41;;;10.18;63.90
26865;BME280;40618;51.166;10.322;2023-04-10T08:54:53;98017.25;;;10.23;64.69
26865;BME280;40618;51.166;10.322;2023-04-10T08:57:20;98021.34;;;10.33;64.14
26865;BME280;40618;51.166;10.322;2023-04-10T08:59:48;98019.09;;;10.60;64.47
26865;BME280;40618;51.166;10.322;2023-04-10T09:02:16;98007.56;;;10.75;63.88
26865;BME280;40618;51.166;10.322;2023-04-10T09:04:49;98009.16;;;10.80;63.60
26865;BME280;40618;51.166;10.322;2023-04-10T09:07:16;98012.56;;;10.84;63.76
26865;BME280;40618;51.166;10.322;2023-04-10T09:09:42;97997.97;;;10.78;63.03
26865;BME280;40618;51.166;10.322;2023-04-10T09:12:10;97994.66;;;10.73;62.84
26865;BME280;40618;51.166;10.322;2023-04-10T09:14:39;97996.28;;;10.77;62.83
26865;BME280;40618;51.166;10.322;2023-04-10T09:17:13;97992.50;;;10.92;63.31
26865;BME280;40618;51.166;10.322;2023-04-10T09:19:57;97988.63;;;11.10;63.02
26865;BME280;40618;51.166;10.322;2023-04-10T09:24:57;97986.34;;;11.32;63.03
26865;BME280;40618;51.166;10.322;2023-04-10T09:27:32;97983.97;;;11.59;62.80
26865;BME280;40618;51.166;10.322;2023-04-10T09:30:05;97984.69;;;11.64;62.25
26865;BME280;40618;51.166;10.322;2023-04-10T09:32:43;97981.72;;;11.80;62.44
26865;BME280;40618;51.166;10.322;2023-04-10T09:35:12;97962.13;;;12.01;62.31
26865;BME280;40618;51.166;10.322;2023-04-10T09:37:40;97967.06;;;12.10;62.07
26865;BME280;40618;51.166;10.322;2023-04-10T09:40:24;97962.59;;;12.15;61.53
26865;BME280;40618;51.166;10.322;2023-04-10T09:42:51;97954.28;;;12.34;61.96
26865;BME280;40618;51.166;10.322;2023-04-10T09:45:17;97963.78;;;12.35;61.30
26865;BME280;40618;51.166;10.322;2023-04-10T09:48:06;97948.19;;;12.35;61.43
26865;BME280;40618;51.166;10.322;2023-04-10T09:50:36;97946.00;;;12.51;61.54
26865;BME280;40618;51.166;10.322;2023-04-10T09:53:04;97951.94;;;12.55;61.00
26865;BME280;40618;51.166;10.322;2023-04-10T09:55:33;97940.16;;;12.73;61.00
26865;BME280;40618;51.166;10.322;2023-04-10T09:58:00;97946.69;;;12.84;60.83
26865;BME280;40618;51.166;10.322;2023-04-10T10:00:27;97935.13;;;12.95;60.42
26865;BME280;40618;51.166;10.322;2023-04-10T10:02:54;97935.13;;;12.95;60.38
26865;BME280;40618;51.166;10.322;2023-04-10T10:05:23;97932.53;;;12.95;60.02
26865;BME280;40618;51.166;10.322;2023-04-10T10:07:55;97916.22;;;12.90;60.12
26865;BME280;40618;51.166;10.322;2023-04-10T10:10:22;97912.38;;;13.01;60.25
26865;BME280;40618;51.166;10.322;2023-04-10T10:12:56;97921.22;;;13.23;59.82
26865;BME280;40618;51.166;10.322;2023-04-10T10:18:53;97903.66;;;13.29;59.46
26865;BME280;40618;51.166;10.322;2023-04-10T10:21:25;97901.09;;;13.28;59.17
26865;BME280;40618;51.166;10.322;2023-04-10T10:23:53;97894.50;;;13.44;58.90
26865;BME280;40618;51.166;10.322;2023-04-10T10:26:22;97895.84;;;13.56;59.24
26865;BME280;40618;51.166;10.322;2023-04-10T10:28:49;97885.72;;;13.72;58.63
26865;BME280;40618;51.166;10.322;2023-04-10T10:31:17;97882.28;;;13.71;58.52
26865;BME280;40618;51.166;10.322;2023-04-10T10:33:44;97875.59;;;13.64;58.35
26865;BME280;40618;51.166;10.322;2023-04-10T10:36:12;97881.78;;;13.62;58.52
26865;BME280;40618;51.166;10.322;2023-04-10T10:38:46;97867.44;;;13.74;58.05
26865;BME280;40618;51.166;10.322;2023-04-10T10:41:25;97847.94;;;13.85;57.98
26865;BME280;40618;51.166;10.322;2023-04-10T10:44:05;97848.56;;;13.92;57.84
26865;BME280;40618;51.166;10.322;2023-04-10T10:46:45;97846.78;;;13.93;57.42
26865;BME280;40618;51.166;10.322;2023-04-10T10:49:16;97839.00;;;13.93;57.84
26865;BME280;40618;51.166;10.322;2023-04-10T10:51:47;97838.31;;;14.11;57.42
26865;BME280;40618;51.166;10.322;2023-04-10T10:54:27;97832.97;;;14.14;57.21
26865;BME280;40618;51.166;10.322;2023-04-10T10:56:54;97840.78;;;14.14;57.33
26865;BME280;40618;51.166;10.322;2023-04-10T11:02:17;97823.97;;;14.23;56.78
26865;BME280;40618;51.166;10.322;2023-04-10T11:04:45;97820.75;;;14.16;56.40
26865;BME280;40618;51.166;10.322;2023-04-10T11:07:13;97827.47;;;14.00;56.29
26865;BME280;40618;51.166;10.322;2023-04-10T11:09:50;97816.75;;;13.84;56.11
26865;BME280;40618;51.166;10.322;2023-04-10T11:12:25;97814.81;;;13.67;56.42
26865;BME280;40618;51.166;10.322;2023-04-10T11:14:59;97815.75;;;13.64;56.19
26865;BME280;40618;51.166;10.322;2023-04-10T11:17:45;97808.72;;;13.66;56.31
26865;BME280;40618;51.166;10.322;2023-04-10T11:20:13;97807.03;;;13.65;55.91
26865;BME280;40618;51.166;10.322;2023-04-10T11:23:07;97805.63;;;13.57;55.93
26865;BME280;40618;51.166;10.322;2023-04-10T11:25:50;97811.84;;;13.52;55.87
26865;BME280;40618;51.166;10.322;2023-04-10T11:28:33;97809.13;;;13.56;55.60
26865;BME280;40618;51.166;10.322;2023-04-10T11:31:19;97802.91;;;13.60;55.93
26865;BME280;40618;51.166;10.322;2023-04-10T11:36:22;97790.91;;;13.79;55.30
26865;BME280;40618;51.166;10.322;2023-04-10T11:41:29;97791.13;;;13.73;55.16
26865;BME280;40618;51.166;10.322;2023-04-10T11:44:00;97775.59;;;13.71;55.22
26865;BME280;40618;51.166;10.322;2023-04-10T11:46:27;97774.13;;;13.64;55.17
26865;BME280;40618;51.166;10.322;2023-04-10T11:48:59;97763.81;;;13.61;55.08
26865;BME280;40618;51.166;10.322;2023-04-10T11:51:27;97761.97;;;13.65;55.32
26865;BME280;40618;51.166;10.322;2023-04-10T11:54:12;97751.41;;;13.68;55.02
26865;BME280;40618;51.166;10.322;2023-04-10T11:56:44;97742.31;;;13.80;55.30
26865;BME280;40618;51.166;10.322;2023-04-10T11:59:22;97748.91;;;13.88;54.76
26865;BME280;40618;51.166;10.322;2023-04-10T12:01:48;97750.31;;;13.97;54.46
26865;BME280;40618;51.166;10.322;2023-04-10T12:04:20;97741.59;;;13.98;54.23
26865;BME280;40618;51.166;10.322;2023-04-10T12:06:56;97732.09;;;13.97;54.35
26865;BME280;40618;51.166;10.322;2023-04-10T12:09:22;97726.81;;;13.99;53.83
26865;BME280;40618;51.166;10.322;2023-04-10T12:11:55;97721.41;;;14.03;54.30
26865;BME280;40618;51.166;10.322;2023-04-10T12:14:31;97709.81;;;14.12;53.98
26865;BME280;40618;51.166;10.322;2023-04-10T12:16:58;97713.97;;;14.16;53.66
26865;BME280;40618;51.166;10.322;2023-04-10T12:19:25;97714.03;;;14.15;53.83
26865;BME280;40618;51.166;10.322;2023-04-10T12:21:52;97700.91;;;14.18;53.90
26865;BME280;40618;51.166;10.322;2023-04-10T12:24:43;97696.28;;;14.25;53.39
26865;BME280;40618;51.166;10.322;2023-04-10T12:27:20;97686.91;;;14.20;53.34
26865;BME280;40618;51.166;10.322;2023-04-10T12:29:47;97685.72;;;14.28;53.28
26865;BME280;40618;51.166;10.322;2023-04-10T12:32:16;97684.75;;;14.30;53.08
26865;BME280;40618;51.166;10.322;2023-04-10T12:34:52;97673.50;;;14.30;52.69
26865;BME280;40618;51.166;10.322;2023-04-10T12:37:22;97668.03;;;14.36;52.54
26865;BME280;40618;51.166;10.322;2023-04-10T12:39:48;97664.66;;;14.34;52.56
26865;BME280;40618;51.166;10.322;2023-04-10T12:42:17;97661.03;;;14.36;52.71
26865;BME280;40618;51.166;10.322;2023-04-10T12:44:58;97663.53;;;14.39;52.38
26865;BME280;40618;51.166;10.322;2023-04-10T12:47:26;97661.78;;;14.40;51.95
26865;BME280;40618;51.166;10.322;2023-04-10T12:50:05;97648.88;;;14.37;52.04
26865;BME280;40618;51.166;10.322;2023-04-10T12:52:33;97649.78;;;14.36;52.16
26865;BME280;40618;51.166;10.322;2023-04-10T12:55:14;97645.38;;;14.38;52.16
26865;BME280;40618;51.166;10.322;2023-04-10T12:57:48;97636.63;;;14.39;51.70
26865;BME280;40618;51.166;10.322;2023-04-10T13:00:16;97633.97;;;14.41;51.47
26865;BME280;40618;51.166;10.322;2023-04-10T13:02:44;97649.41;;;14.45;51.62
26865;BME280;40618;51.166;10.322;2023-04-10T13:05:11;97628.34;;;14.50;51.39
26865;BME280;40618;51.166;10.322;2023-04-10T13:07:38;97622.03;;;14.55;51.49
26865;BME280;40618;51.166;10.322;2023-04-10T13:10:05;97626.94;;;14.63;51.25
26865;BME280;40618;51.166;10.322;2023-04-10T13:12:32;97621.59;;;14.66;51.51
26865;BME280;40618;51.166;10.322;2023-04-10T13:15:03;97623.44;;;14.64;51.45
26865;BME280;40618;51.166;10.322;2023-04-10T13:17:29;97621.53;;;14.68;50.82
26865;BME280;40618;51.166;10.322;2023-04-10T13:19:55;97617.88;;;14.72;50.89
26865;BME280;40618;51.166;10.322;2023-04-10T13:22:20;97611.75;;;14.73;51.26
26865;BME280;40618;51.166;10.322;2023-04-10T13:24:46;97616.19;;;14.71;50.80
26865;BME280;40618;51.166;10.322;2023-04-10T13:27:11;97603.16;;;14.71;50.97
26865;BME280;40618;51.166;10.322;2023-04-10T13:29:41;97593.78;;;14.67;50.75
26865;BME280;40618;51.166;10.322;2023-04-10T13:32:07;97592.09;;;14.66;51.18